Hauptseite
METAR-TAF:

METAR-TAF

Flughäfen :

Flughafen Lusaka

Lusaka, Sambia

Breite: 15-19-51S, Länge: 028-27-09E, Höhe: 1152 m

METAR: fehlend

Zeit: 02:35 (00:35 UTC)

Prognose

Neuester Wetterbericht von vor 8 Stunden und 35 Minuten, um 16:00 UTC
Gültige Prognose vom 16 um 18 UTC bis 17 um 24 UTC
Wind 5 kt aus Südost
Sichtweite 10 km oder mehr
keine Wolken unter 1500 m und keine Kumulonimbus oder Gewitterwolken
Übergehend zu
vom 17 um 06 UTC bis 17 um 08 UTC
Wind 10 kt aus Ost, Böen bis zu 15 kt
Sichtweite 10 km oder mehr
Aufgelockert bewölkt in der Höhe von 2500 ft
Übergehend zu
vom 17 um 12 UTC bis 17 um 14 UTC
Wind 10 kt aus Ost/Nordost
Ab 17 um 1500 UTC
Sichtweite 10 km oder mehr
keine Wolken unter 1500 m und keine Kumulonimbus oder Gewitterwolken

TAF: FLKK 161600Z 1618/1724 13005KT CAVOK BECMG 1706/1708 10010G15KT 9999 SCT025 BECMG 1712/1714 06010KT FM171500 CAVOK

Wetterbeobachtungen und Prognosen von mehr als 4000 Flughäfen (METAR und TAF Bericht).

Die verfügbaren Stationen werden durch gelbe und rote Markierungen auf der Karte dargestellt.

Führen Sie die Maus auf sie, um den Namen der Station zu sehen.

Darauf klicken, um die Beobachtung von Wetterbeobachtungen und Prognosen zu sehen.

Um die Karte zu ändern : klicken Sie auf den grünen Tasten mit einem schwarzen Kreuz Zum Vergrößern, auf den grünen Button mit einem Gedankenstrich zu verkleinern, oder auf die grünen Pfeile für benachbarte Karten.


METAR-TAF: